Simon Bolivar International Airport
SEGU : now visible

Airfield :











YOU CAN JOIN US ON...

 
LOGIN :

Register | Disclaimer

   EN    FR    IT 

 









Legend :    VFR   Marginal VFR   IFR   Intensive IFR   Very Intensive IFR
Visi :
Ceiling :
>= 8 km
>= 3000ft
5 to 8 km
1000 to 3000 ft
1500m to 5 km
500 to 1000 ft
800 to 1500m
200 to 500 ft
< 800m
< 200 ft
Symbols :   Thunderstorms  Fog  Heavy snow  Heavy precipitations  Wind > 20 kt






- Airport Elevation : 19 ft
- IATA code : GYE


SEGU - Simon Bolivar International

CURRENT METAR :
  • 030700Z 20011KT 9999 FEW013 BKN030 21/18 Q1013 NOSIG RMK A2991

EXPIRED METARs :
  • 030600Z 21010KT 9999 FEW013 BKN030 21/18 Q1013 NOSIG RMK A2993
  • 030500Z 21006KT 9999 FEW013 SCT030 21/18 Q1013 NOSIG RMK A2993

TAF SEGU
Valid from the 03 at 06:00 until the 04 at 06:00 UTC


030410Z 0306/0406 21008KT 9999 FEW013 BKN030
BECMG 0314/0316 SCT023 SCT100
BECMG 0317/0319 14005KT FEW026 SCT100
BECMG 0322/0324 22010KT BKN030 SCT100 TX29/0320Z TN21/0310Z
SEGU FIR / South America



MET'MAP, your aeronautical weather chart ! - Copyright ORBIFLY December 2007 - Disclaimer

ORBIFLY MET'MAP TEAM :

Programming & Development : Alexandra Zaïnal
Concept & original design : Baudouin d'Aumeries
Assistance for programming : Marc-Olivier Méhu
Technical & hardware support : Manuel Goepfert

Contact : metmap@orbifly.com




SOURCES & CREDITS :

   NOAA       Earth
Advisory